Time,TemperatureF,DewpointF,PressureIn,WindDirection,WindDirectionDegrees,WindSpeedMPH,WindSpeedGustMPH,Humidity,HourlyPrecipIn,Conditions,Clouds,dailyrainin,SoftwareType,DateUTC
2013-01-24 01:03:00,16.0,7.0,28.96,NNW,337,0.0,0.0,68,0.00,,,0.00,,2013-01-24 06:03:00,
2013-01-24 01:12:00,16.0,7.0,28.96,NNW,337,0.0,0.0,68,0.00,,,0.00,,2013-01-24 06:12:00,
2013-01-24 01:22:00,16.0,8.0,28.96,NNW,337,0.0,1.0,69,0.00,,,0.00,,2013-01-24 06:22:00,
2013-01-24 01:32:00,16.0,8.0,28.93,NW,315,0.0,0.0,69,0.00,,,0.00,,2013-01-24 06:32:00,
2013-01-24 01:42:00,16.0,8.0,28.93,NW,315,0.0,0.0,69,0.00,,,0.00,,2013-01-24 06:42:00,
2013-01-24 01:52:00,15.0,7.0,28.93,WSW,247,0.0,0.0,69,0.00,,,0.00,,2013-01-24 06:52:00,
2013-01-24 02:03:00,15.0,7.0,28.93,NW,315,0.0,1.0,69,0.00,,,0.00,,2013-01-24 07:03:00,
2013-01-24 02:12:00,15.0,7.0,28.93,NW,315,0.0,1.0,69,0.00,,,0.00,,2013-01-24 07:12:00,
2013-01-24 02:23:00,15.0,7.0,28.95,NNW,337,0.0,0.0,70,0.00,,,0.00,,2013-01-24 07:23:00,
2013-01-24 02:33:00,15.0,7.0,28.95,North,0,0.0,1.0,70,0.00,,,0.00,,2013-01-24 07:33:00,
2013-01-24 02:43:00,15.0,7.0,28.95,North,0,0.0,1.0,70,0.00,,,0.00,,2013-01-24 07:43:00,
2013-01-24 02:53:00,15.0,8.0,28.96,North,0,0.0,1.0,72,0.00,,,0.00,,2013-01-24 07:53:00,
2013-01-24 03:02:00,15.0,8.0,28.99,NNW,337,1.0,3.0,73,0.00,,,0.00,,2013-01-24 08:02:00,
2013-01-24 03:12:00,15.0,8.0,28.99,NNW,337,1.0,3.0,73,0.00,,,0.00,,2013-01-24 08:12:00,
2013-01-24 03:23:00,14.0,7.0,28.98,North,359,2.0,3.0,74,0.00,,,0.00,,2013-01-24 08:23:00,
2013-01-24 03:33:00,14.0,7.0,28.98,NNE,22,1.0,2.0,74,0.00,,,0.00,,2013-01-24 08:33:00,
2013-01-24 03:43:00,14.0,7.0,28.98,NNE,22,1.0,2.0,74,0.00,,,0.00,,2013-01-24 08:43:00,
2013-01-24 03:53:00,14.0,7.0,28.98,North,0,0.0,1.0,74,0.00,,,0.00,,2013-01-24 08:53:00,
2013-01-24 04:03:00,14.0,8.0,29.01,NNW,328,1.0,2.0,75,0.00,,,0.00,,2013-01-24 09:03:00,
2013-01-24 04:13:00,14.0,8.0,29.01,NNW,328,1.0,2.0,75,0.00,,,0.00,,2013-01-24 09:13:00,
2013-01-24 04:23:00,14.0,8.0,29.01,NW,320,1.0,2.0,75,0.00,,,0.00,,2013-01-24 09:23:00,
2013-01-24 04:33:00,13.0,7.0,29.01,NW,312,1.0,3.0,75,0.00,,,0.00,,2013-01-24 09:33:00,
2013-01-24 04:43:00,13.0,7.0,29.01,NW,312,1.0,3.0,75,0.00,,,0.00,,2013-01-24 09:43:00,
2013-01-24 04:53:00,13.0,7.0,29.04,NNW,333,2.0,4.0,75,0.00,,,0.00,,2013-01-24 09:53:00,
2013-01-24 05:03:00,13.0,7.0,29.04,NNW,337,3.0,4.0,75,0.00,,,0.00,,2013-01-24 10:03:00,
2013-01-24 05:12:00,13.0,7.0,29.04,NNW,337,3.0,4.0,75,0.00,,,0.00,,2013-01-24 10:12:00,
2013-01-24 05:23:00,13.0,7.0,29.04,NW,316,2.0,4.0,75,0.00,,,0.00,,2013-01-24 10:23:00,
2013-01-24 05:33:00,12.0,6.0,29.04,NNW,337,2.0,4.0,75,0.00,,,0.00,,2013-01-24 10:33:00,
2013-01-24 05:43:00,12.0,6.0,29.04,NNW,337,2.0,4.0,75,0.00,,,0.00,,2013-01-24 10:43:00,
2013-01-24 05:53:00,12.0,6.0,29.10,NNW,341,2.0,4.0,75,0.00,,,0.00,,2013-01-24 10:53:00,
2013-01-24 06:03:00,12.0,6.0,29.10,NNW,348,2.0,4.0,75,0.00,,,0.00,,2013-01-24 11:03:00,
2013-01-24 06:12:00,12.0,6.0,29.10,NNW,348,2.0,4.0,75,0.00,,,0.00,,2013-01-24 11:12:00,
2013-01-24 06:23:00,12.0,6.0,29.10,North,0,2.0,2.0,75,0.00,,,0.00,,2013-01-24 11:23:00,
2013-01-24 06:33:00,12.0,6.0,29.10,NW,324,2.0,5.0,75,0.00,,,0.00,,2013-01-24 11:33:00,
2013-01-24 06:43:00,12.0,6.0,29.10,NW,324,2.0,5.0,75,0.00,,,0.00,,2013-01-24 11:43:00,
2013-01-24 06:53:00,12.0,6.0,29.13,NNW,344,2.0,5.0,75,0.00,,,0.00,,2013-01-24 11:53:00,
2013-01-24 07:03:00,13.0,7.0,29.13,NW,315,4.0,7.0,75,0.00,,,0.00,,2013-01-24 12:03:00,
2013-01-24 07:12:00,13.0,7.0,29.13,NW,315,4.0,7.0,75,0.00,,,0.00,,2013-01-24 12:12:00,
2013-01-24 07:23:00,13.0,7.0,29.15,NNW,337,3.0,4.0,75,0.00,,,0.00,,2013-01-24 12:23:00,
2013-01-24 07:33:00,13.0,7.0,29.15,NNW,346,3.0,5.0,75,0.00,,,0.00,,2013-01-24 12:33:00,
2013-01-24 07:43:00,13.0,7.0,29.15,NNW,346,3.0,5.0,75,0.00,,,0.00,,2013-01-24 12:43:00,
2013-01-24 07:53:00,13.0,7.0,29.18,WNW,282,4.0,5.0,75,0.00,,,0.00,,2013-01-24 12:53:00,
2013-01-24 08:03:00,13.0,7.0,29.18,North,355,4.0,6.0,75,0.00,,,0.00,,2013-01-24 13:03:00,
2013-01-24 08:13:00,13.0,7.0,29.18,North,355,4.0,6.0,75,0.00,,,0.00,,2013-01-24 13:13:00,
2013-01-24 08:23:00,13.0,7.0,29.21,NNW,342,3.0,5.0,75,0.00,,,0.00,,2013-01-24 13:23:00,
2013-01-24 08:33:00,14.0,8.0,29.21,NNW,346,4.0,6.0,75,0.00,,,0.00,,2013-01-24 13:33:00,
2013-01-24 08:43:00,14.0,8.0,29.21,NNW,346,4.0,6.0,75,0.00,,,0.00,,2013-01-24 13:43:00,
2013-01-24 08:53:00,14.0,5.0,29.24,NNW,337,3.0,4.0,68,0.00,,,0.00,,2013-01-24 13:53:00,
2013-01-24 09:03:00,15.0,5.0,29.24,NNW,337,3.0,5.0,63,0.00,,,0.00,,2013-01-24 14:03:00,
2013-01-24 09:12:00,15.0,5.0,29.24,NNW,337,3.0,5.0,63,0.00,,,0.00,,2013-01-24 14:12:00,
2013-01-24 09:23:00,15.0,4.0,29.24,NNE,22,3.0,5.0,60,0.00,,,0.00,,2013-01-24 14:23:00,
2013-01-24 09:33:00,17.0,4.0,29.28,NNW,337,4.0,6.0,57,0.00,,,0.00,,2013-01-24 14:33:00,
2013-01-24 09:43:00,17.0,4.0,29.28,NNW,337,4.0,6.0,57,0.00,,,0.00,,2013-01-24 14:43:00,
2013-01-24 09:53:00,17.0,4.0,29.28,NNW,337,3.0,4.0,55,0.00,,,0.00,,2013-01-24 14:53:00,
2013-01-24 10:04:00,19.0,5.0,29.28,WSW,247,3.0,4.0,53,0.00,,,0.00,,2013-01-24 15:04:00,
2013-01-24 10:13:00,19.0,5.0,29.28,WSW,247,3.0,4.0,53,0.00,,,0.00,,2013-01-24 15:13:00,
2013-01-24 10:23:00,19.0,4.0,29.28,WSW,247,3.0,4.0,52,0.00,,,0.00,,2013-01-24 15:23:00,
2013-01-24 10:33:00,19.0,4.0,29.28,WSW,247,3.0,4.0,52,0.00,,,0.00,,2013-01-24 15:33:00,
2013-01-24 10:43:00,20.0,4.0,29.31,SSE,157,5.0,5.0,50,0.00,,,0.00,,2013-01-24 15:43:00,
2013-01-24 10:53:00,22.0,6.0,29.32,SSE,157,5.0,5.0,49,0.00,,,0.00,,2013-01-24 15:53:00,
2013-01-24 11:04:00,23.0,5.0,29.35,WNW,302,6.0,7.0,45,0.00,,,0.00,,2013-01-24 16:04:00,
2013-01-24 11:12:00,23.0,5.0,29.35,WNW,302,6.0,7.0,45,0.00,,,0.00,,2013-01-24 16:12:00,
2013-01-24 11:23:00,24.0,5.0,29.35,NNE,22,7.0,8.0,44,0.00,,,0.00,,2013-01-24 16:23:00,
2013-01-24 11:33:00,25.0,6.0,29.35,North,0,4.0,7.0,44,0.00,,,0.00,,2013-01-24 16:33:00,
2013-01-24 11:43:00,25.0,6.0,29.35,North,0,4.0,7.0,44,0.00,,,0.00,,2013-01-24 16:43:00,
2013-01-24 12:03:00,23.0,5.0,29.38,North,0,4.0,4.0,46,0.00,,,0.00,,2013-01-24 17:03:00,
2013-01-24 12:12:00,23.0,5.0,29.38,North,0,4.0,4.0,46,0.00,,,0.00,,2013-01-24 17:12:00,
2013-01-24 12:22:00,25.0,6.0,29.38,North,0,4.0,4.0,44,0.00,,,0.00,,2013-01-24 17:22:00,
2013-01-24 12:32:00,23.0,5.0,29.38,North,0,4.0,4.0,45,0.00,,,0.00,,2013-01-24 17:32:00,
2013-01-24 12:43:00,23.0,5.0,29.38,North,0,4.0,4.0,45,0.00,,,0.00,,2013-01-24 17:43:00,
2013-01-24 12:52:00,27.0,6.0,29.38,North,0,4.0,4.0,41,0.00,,,0.00,,2013-01-24 17:52:00,
2013-01-24 13:02:00,28.0,6.0,29.38,North,0,4.0,4.0,38,0.00,,,0.00,,2013-01-24 18:02:00,
2013-01-24 13:12:00,29.0,7.0,29.38,North,0,4.0,4.0,38,0.00,,,0.00,,2013-01-24 18:12:00,
2013-01-24 13:23:00,29.0,7.0,29.38,North,0,4.0,4.0,38,0.00,,,0.00,,2013-01-24 18:23:00,
2013-01-24 13:33:00,29.0,5.0,29.38,NNW,337,4.0,4.0,35,0.00,,,0.00,,2013-01-24 18:33:00,
2013-01-24 13:42:00,29.0,5.0,29.38,NNW,337,4.0,4.0,35,0.00,,,0.00,,2013-01-24 18:42:00,
2013-01-24 13:53:00,30.0,4.0,29.38,NNW,337,4.0,4.0,32,0.00,,,0.00,,2013-01-24 18:53:00,
2013-01-24 14:02:00,25.0,2.0,29.37,NNW,337,4.0,4.0,36,0.00,,,0.00,,2013-01-24 19:02:00,
2013-01-24 14:12:00,25.0,2.0,29.37,NNW,337,4.0,4.0,36,0.00,,,0.00,,2013-01-24 19:12:00,
2013-01-24 14:22:00,29.0,4.0,29.38,NNW,337,4.0,4.0,33,0.00,,,0.00,,2013-01-24 19:22:00,
2013-01-24 14:33:00,28.0,1.0,29.38,NNW,337,4.0,4.0,31,0.00,,,0.00,,2013-01-24 19:33:00,
2013-01-24 14:42:00,27.0,1.0,29.37,North,3,4.0,6.0,32,0.00,,,0.00,,2013-01-24 19:42:00,
2013-01-24 14:52:00,27.0,1.0,29.37,North,3,4.0,6.0,32,0.00,,,0.00,,2013-01-24 19:52:00,
2013-01-24 15:02:00,29.0,1.0,29.38,NNE,22,5.0,5.0,30,0.00,,,0.00,,2013-01-24 20:02:00,
2013-01-24 15:12:00,29.0,1.0,29.38,NNE,22,5.0,5.0,30,0.00,,,0.00,,2013-01-24 20:12:00,
2013-01-24 15:22:00,29.0,2.0,29.38,NNE,22,5.0,5.0,31,0.00,,,0.00,,2013-01-24 20:22:00,
2013-01-24 15:33:00,27.0,0.0,29.37,WNW,292,7.0,7.0,31,0.00,,,0.00,,2013-01-24 20:33:00,
2013-01-24 15:42:00,27.0,0.0,29.37,WNW,292,7.0,7.0,31,0.00,,,0.00,,2013-01-24 20:42:00,
2013-01-24 15:52:00,27.0,0.0,29.37,WNW,292,7.0,7.0,31,0.00,,,0.00,,2013-01-24 20:52:00,
2013-01-24 16:03:00,26.0,0.0,29.37,WNW,292,7.0,9.0,31,0.00,,,0.00,,2013-01-24 21:03:00,
2013-01-24 16:12:00,26.0,0.0,29.37,WNW,292,7.0,9.0,31,0.00,,,0.00,,2013-01-24 21:12:00,
2013-01-24 16:22:00,25.0,-1.0,29.37,NNW,337,5.0,9.0,31,0.00,,,0.00,,2013-01-24 21:22:00,
2013-01-24 16:33:00,25.0,-1.0,29.40,North,0,10.0,13.0,32,0.00,,,0.00,,2013-01-24 21:33:00,
2013-01-24 16:43:00,25.0,-1.0,29.40,North,0,10.0,13.0,32,0.00,,,0.00,,2013-01-24 21:43:00,
2013-01-24 16:52:00,22.0,-3.0,29.40,NNE,22,6.0,9.0,32,0.00,,,0.00,,2013-01-24 21:52:00,
2013-01-24 17:03:00,22.0,-3.0,29.40,NNE,20,4.0,6.0,32,0.00,,,0.00,,2013-01-24 22:03:00,
2013-01-24 17:12:00,22.0,-3.0,29.40,NNE,20,4.0,6.0,32,0.00,,,0.00,,2013-01-24 22:12:00,
2013-01-24 17:22:00,21.0,-4.0,29.40,NNE,22,5.0,6.0,33,0.00,,,0.00,,2013-01-24 22:22:00,
2013-01-24 17:33:00,20.0,-4.0,29.39,NE,45,4.0,9.0,33,0.00,,,0.00,,2013-01-24 22:33:00,
2013-01-24 17:42:00,20.0,-4.0,29.39,NE,45,4.0,9.0,33,0.00,,,0.00,,2013-01-24 22:42:00,
2013-01-24 17:52:00,20.0,-4.0,29.39,North,352,3.0,5.0,33,0.00,,,0.00,,2013-01-24 22:52:00,
2013-01-24 18:03:00,20.0,-4.0,29.39,NNW,338,4.0,6.0,33,0.00,,,0.00,,2013-01-24 23:03:00,
2013-01-24 18:12:00,20.0,-4.0,29.39,NNW,338,4.0,6.0,33,0.00,,,0.00,,2013-01-24 23:12:00,
2013-01-24 18:22:00,20.0,-4.0,29.39,North,355,1.0,4.0,33,0.00,,,0.00,,2013-01-24 23:22:00,
2013-01-24 18:32:00,20.0,-4.0,29.39,North,0,3.0,4.0,33,0.00,,,0.00,,2013-01-24 23:32:00,
2013-01-24 18:42:00,20.0,-4.0,29.39,North,0,3.0,4.0,33,0.00,,,0.00,,2013-01-24 23:42:00,
2013-01-24 18:52:00,20.0,-4.0,29.42,NNE,22,2.0,4.0,33,0.00,,,0.00,,2013-01-24 23:52:00,
2013-01-24 19:02:00,20.0,-4.0,29.42,NNE,22,1.0,4.0,33,0.00,,,0.00,,2013-01-25 00:02:00,
2013-01-24 19:12:00,20.0,-4.0,29.42,NNE,22,1.0,4.0,33,0.00,,,0.00,,2013-01-25 00:12:00,
2013-01-24 19:22:00,20.0,-4.0,29.42,NE,45,3.0,3.0,33,0.00,,,0.00,,2013-01-25 00:22:00,
2013-01-24 19:32:00,20.0,-4.0,29.42,NNE,22,0.0,3.0,33,0.00,,,0.00,,2013-01-25 00:32:00,
2013-01-24 19:42:00,20.0,-4.0,29.42,NNE,22,0.0,3.0,33,0.00,,,0.00,,2013-01-25 00:42:00,
2013-01-24 19:53:00,20.0,-4.0,29.42,ENE,67,1.0,2.0,33,0.00,,,0.00,,2013-01-25 00:53:00,
2013-01-24 20:02:00,15.0,-5.0,29.42,NNE,22,0.0,1.0,39,0.00,,,0.00,,2013-01-25 01:02:00,
2013-01-24 20:12:00,15.0,-5.0,29.42,NNE,22,0.0,1.0,39,0.00,,,0.00,,2013-01-25 01:12:00,
2013-01-24 20:22:00,15.0,-5.0,29.42,West,270,0.0,1.0,39,0.00,,,0.00,,2013-01-25 01:22:00,
2013-01-24 20:32:00,15.0,-5.0,29.42,West,270,0.0,0.0,39,0.00,,,0.00,,2013-01-25 01:32:00,
2013-01-24 20:42:00,15.0,-5.0,29.42,West,270,0.0,0.0,39,0.00,,,0.00,,2013-01-25 01:42:00,
2013-01-24 20:52:00,14.0,-4.0,29.42,NNW,337,0.0,0.0,44,0.00,,,0.00,,2013-01-25 01:52:00,
2013-01-24 21:02:00,13.0,-5.0,29.42,NNW,337,0.0,0.0,44,0.00,,,0.00,,2013-01-25 02:02:00,
2013-01-24 21:12:00,13.0,-5.0,29.42,NNW,337,0.0,0.0,44,0.00,,,0.00,,2013-01-25 02:12:00,
2013-01-24 21:22:00,13.0,-5.0,29.39,NNW,337,0.0,0.0,44,0.00,,,0.00,,2013-01-25 02:22:00,
2013-01-24 21:32:00,13.0,-5.0,29.39,NNW,337,0.0,0.0,44,0.00,,,0.00,,2013-01-25 02:32:00,
2013-01-24 21:42:00,13.0,-5.0,29.39,NNW,337,0.0,0.0,44,0.00,,,0.00,,2013-01-25 02:42:00,
2013-01-24 21:53:00,13.0,-5.0,29.39,NNW,337,0.0,0.0,44,0.00,,,0.00,,2013-01-25 02:53:00,
2013-01-24 22:02:00,12.0,-6.0,29.39,NNW,337,0.0,0.0,44,0.00,,,0.00,,2013-01-25 03:02:00,
2013-01-24 22:12:00,12.0,-6.0,29.39,North,0,0.0,0.0,44,0.00,,,0.00,,2013-01-25 03:12:00,
2013-01-24 22:22:00,12.0,-6.0,29.39,North,0,0.0,0.0,44,0.00,,,0.00,,2013-01-25 03:22:00,
2013-01-24 22:33:00,13.0,-5.0,29.39,NNW,337,0.0,1.0,44,0.00,,,0.00,,2013-01-25 03:33:00,
2013-01-24 22:42:00,13.0,-5.0,29.39,NNW,337,0.0,1.0,44,0.00,,,0.00,,2013-01-25 03:42:00,
2013-01-24 22:52:00,13.0,-5.0,29.40,NNW,337,0.0,0.0,44,0.00,,,0.00,,2013-01-25 03:52:00,
2013-01-24 23:02:00,13.0,-5.0,29.40,ENE,67,0.0,2.0,44,0.00,,,0.00,,2013-01-25 04:02:00,
2013-01-24 23:12:00,13.0,-5.0,29.40,ENE,67,0.0,2.0,44,0.00,,,0.00,,2013-01-25 04:12:00,
2013-01-24 23:22:00,13.0,-5.0,29.37,East,90,0.0,0.0,44,0.00,,,0.00,,2013-01-25 04:22:00,
2013-01-24 23:32:00,13.0,-5.0,29.37,ENE,67,0.0,0.0,44,0.00,,,0.00,,2013-01-25 04:32:00,
2013-01-24 23:42:00,13.0,-5.0,29.37,ENE,67,0.0,0.0,44,0.00,,,0.00,,2013-01-25 04:42:00,
2013-01-24 23:51:00,13.0,-5.0,29.37,East,90,0.0,0.0,44,0.00,,,0.00,,2013-01-25 04:51:00,